createdAt,value
2022-09-20T00:01:21.807Z,95183.34
2022-09-20T00:03:51.412Z,95178.94
2022-09-20T00:06:21.557Z,95174.44
2022-09-20T00:08:49.395Z,95186.84
2022-09-20T00:11:19.064Z,95186.84
2022-09-20T00:13:47.917Z,95192.16
2022-09-20T00:16:18.123Z,95200.25
2022-09-20T00:18:49.454Z,95192.94
2022-09-20T00:21:18.878Z,95193.75
2022-09-20T00:23:45.674Z,95198.28
2022-09-20T00:26:14.092Z,95192.44
2022-09-20T00:28:41.735Z,95188.22
2022-09-20T00:31:08.703Z,95177.53
2022-09-20T00:33:54.189Z,95172.34
2022-09-20T00:36:20.991Z,95172.16
2022-09-20T00:38:47.837Z,95176.38
2022-09-20T00:41:14.835Z,95168.63
2022-09-20T00:43:45.345Z,95176.81
2022-09-20T00:46:17.957Z,95181.03
2022-09-20T00:48:45.086Z,95180.66
2022-09-20T00:51:16.762Z,95182.59
2022-09-20T00:53:48.774Z,95185.16
2022-09-20T00:56:29.823Z,95183.19
2022-09-20T00:59:16.609Z,95195.75
2022-09-20T01:01:46.571Z,95195.25
2022-09-20T01:04:16.358Z,95192.50
2022-09-20T01:06:46.350Z,95176.50
2022-09-20T01:09:13.255Z,95182.47
2022-09-20T01:11:41.209Z,95180.03
2022-09-20T01:14:08.847Z,95184.09
2022-09-20T01:16:36.967Z,95185.22
2022-09-20T01:19:15.109Z,95184.41
2022-09-20T01:21:42.109Z,95190.53
2022-09-20T01:24:19.002Z,95190.38
2022-09-20T01:27:10.006Z,95188.44
2022-09-20T01:30:21.549Z,95185.88
2022-09-20T01:33:03.122Z,95180.84
2022-09-20T01:35:34.434Z,95181.16
2022-09-20T01:38:04.134Z,95180.34
2022-09-20T01:40:45.734Z,95180.13
2022-09-20T01:43:24.846Z,95182.88
2022-09-20T01:45:53.199Z,95179.09
2022-09-20T01:48:36.232Z,95186.19
2022-09-20T01:51:05.935Z,95190.69
2022-09-20T01:53:56.955Z,95194.69
2022-09-20T01:56:45.298Z,95195.13
2022-09-20T01:59:24.322Z,95192.97
2022-09-20T02:01:54.337Z,95187.59
2022-09-20T02:04:33.192Z,95179.34
2022-09-20T02:07:20.283Z,95172.00
2022-09-20T02:09:58.572Z,95158.72
2022-09-20T02:12:54.458Z,95159.31
2022-09-20T02:15:48.215Z,95161.53
2022-09-20T02:18:24.106Z,95162.09
2022-09-20T02:21:34.574Z,95160.91
2022-09-20T02:24:26.350Z,95153.31
2022-09-20T02:27:11.474Z,95162.00
2022-09-20T02:30:12.915Z,95168.16
2022-09-20T02:32:58.229Z,95170.88
2022-09-20T02:35:42.057Z,95178.75
2022-09-20T02:38:36.621Z,95175.28
2022-09-20T02:41:31.060Z,95174.06
2022-09-20T02:44:22.453Z,95176.56
2022-09-20T02:47:09.054Z,95185.16
2022-09-20T02:49:58.981Z,95182.63
2022-09-20T02:52:49.120Z,95184.41
2022-09-20T02:55:41.845Z,95187.44
2022-09-20T02:58:39.170Z,95187.19
2022-09-20T03:01:11.673Z,95185.69
2022-09-20T03:03:50.624Z,95188.19
2022-09-20T03:06:30.349Z,95178.00
2022-09-20T03:09:14.053Z,95186.69
2022-09-20T03:12:00.906Z,95182.63
2022-09-20T03:14:57.721Z,95184.94
2022-09-20T03:17:42.548Z,95184.25
2022-09-20T03:20:15.401Z,95190.38
2022-09-20T03:23:06.893Z,95192.25
2022-09-20T03:26:02.399Z,95200.81
2022-09-20T03:28:54.147Z,95198.22
2022-09-20T03:31:48.796Z,95198.38
2022-09-20T03:34:58.362Z,95201.91
2022-09-20T03:37:39.715Z,95210.84
2022-09-20T03:40:15.970Z,95210.72
2022-09-20T03:42:58.959Z,95203.66
2022-09-20T03:45:56.603Z,95201.75
2022-09-20T03:48:35.922Z,95205.91
2022-09-20T03:51:23.750Z,95208.22
2022-09-20T03:53:53.666Z,95202.94
2022-09-20T03:57:01.870Z,95204.56
2022-09-20T03:59:43.994Z,95208.91
2022-09-20T04:02:29.526Z,95204.84
2022-09-20T04:05:01.260Z,95205.91
2022-09-20T04:07:49.531Z,95209.19
2022-09-20T04:10:38.216Z,95215.41
2022-09-20T04:13:16.384Z,95216.53
2022-09-20T04:16:01.793Z,95219.53
2022-09-20T04:18:28.570Z,95232.28
2022-09-20T04:21:23.953Z,95225.75
2022-09-20T04:24:16.596Z,95233.63
2022-09-20T04:26:51.894Z,95225.50
2022-09-20T04:29:26.570Z,95231.19
2022-09-20T04:32:04.080Z,95238.78
2022-09-20T04:35:21.359Z,95224.41
2022-09-20T04:37:49.736Z,95231.72
2022-09-20T04:40:25.662Z,95234.84
2022-09-20T04:43:40.769Z,95240.69
2022-09-20T04:46:35.851Z,95237.97
2022-09-20T04:49:21.417Z,95237.84
2022-09-20T04:51:58.340Z,95241.72
2022-09-20T04:54:49.286Z,95245.66
2022-09-20T04:57:34.581Z,95243.63
2022-09-20T05:00:12.953Z,95240.63
2022-09-20T05:03:04.397Z,95241.94
2022-09-20T05:05:46.258Z,95237.72
2022-09-20T05:08:31.785Z,95239.75
2022-09-20T05:11:12.921Z,95240.78
2022-09-20T05:13:57.734Z,95242.69
2022-09-20T05:16:50.511Z,95248.06
2022-09-20T05:19:43.334Z,95247.91
2022-09-20T05:22:44.336Z,95252.78
2022-09-20T05:25:46.751Z,95256.38
2022-09-20T05:28:16.590Z,95255.53
2022-09-20T05:30:58.561Z,95257.38
2022-09-20T05:33:40.462Z,95251.94
2022-09-20T05:36:16.715Z,95261.69
2022-09-20T05:39:02.824Z,95259.22
2022-09-20T05:41:35.597Z,95254.28
2022-09-20T05:44:18.615Z,95262.41
2022-09-20T05:46:55.030Z,95256.16
2022-09-20T05:49:55.824Z,95255.25
2022-09-20T05:52:39.624Z,95244.34
2022-09-20T05:55:20.863Z,95248.59
2022-09-20T05:58:05.957Z,95257.78
2022-09-20T06:00:44.652Z,95245.81
2022-09-20T06:03:36.773Z,95258.50
2022-09-20T06:06:30.346Z,95262.78
2022-09-20T06:09:28.878Z,95255.69
2022-09-20T06:12:14.092Z,95254.13
2022-09-20T06:15:18.010Z,95267.78
2022-09-20T06:18:14.092Z,95249.69
2022-09-20T06:21:02.530Z,95260.22
2022-09-20T06:23:31.416Z,95256.22
2022-09-20T06:26:29.950Z,95255.63
2022-09-20T06:29:03.361Z,95254.69
2022-09-20T06:31:30.290Z,95258.66
2022-09-20T06:34:10.717Z,95254.16
2022-09-20T06:37:01.607Z,95262.28
2022-09-20T06:39:56.322Z,95258.44
2022-09-20T06:42:26.937Z,95250.31
2022-09-20T06:44:54.461Z,95257.78
2022-09-20T06:47:23.329Z,95247.75
2022-09-20T06:49:50.559Z,95242.78
2022-09-20T06:52:19.574Z,95253.00
2022-09-20T06:54:48.350Z,95252.53
2022-09-20T06:57:19.196Z,95254.03
2022-09-20T06:59:46.006Z,95262.50
2022-09-20T07:02:13.016Z,95265.94
2022-09-20T07:04:40.206Z,95253.81
2022-09-20T07:07:09.718Z,95259.19
2022-09-20T07:09:36.894Z,95267.47
2022-09-20T07:12:03.949Z,95255.97
2022-09-20T07:14:31.260Z,95254.38
2022-09-20T07:16:58.062Z,95256.00
2022-09-20T07:19:24.821Z,95261.34
2022-09-20T07:21:51.676Z,95255.84
2022-09-20T07:24:18.524Z,95262.97
2022-09-20T07:27:01.562Z,95268.00
2022-09-20T07:29:29.321Z,95264.09
2022-09-20T07:31:57.194Z,95258.09
2022-09-20T07:34:24.556Z,95255.19
2022-09-20T07:36:51.464Z,95248.69
2022-09-20T07:39:18.930Z,95251.63
2022-09-20T07:41:48.676Z,95257.28
2022-09-20T07:44:24.428Z,95261.38
2022-09-20T07:46:53.239Z,95255.53
2022-09-20T07:49:21.411Z,95250.63
2022-09-20T07:51:49.972Z,95249.03
2022-09-20T07:54:17.722Z,95254.53
2022-09-20T07:56:45.691Z,95241.06
2022-09-20T07:59:13.853Z,95249.00
2022-09-20T08:01:41.380Z,95240.88
2022-09-20T08:04:09.428Z,95244.91
2022-09-20T08:06:38.154Z,95234.34
2022-09-20T08:09:10.222Z,95245.34
2022-09-20T08:11:39.690Z,95244.13
2022-09-20T08:14:09.131Z,95239.97
2022-09-20T08:16:41.484Z,95243.09
2022-09-20T08:19:09.271Z,95242.47
2022-09-20T08:21:38.997Z,95233.28
2022-09-20T08:24:06.089Z,95242.19
2022-09-20T08:26:35.572Z,95246.81
2022-09-20T08:29:03.189Z,95247.63
2022-09-20T08:31:34.511Z,95249.47
2022-09-20T08:34:04.025Z,95244.84
2022-09-20T08:36:36.422Z,95237.69
2022-09-20T08:42:03.827Z,95234.69
2022-09-20T08:44:45.331Z,95226.63
2022-09-20T08:47:12.466Z,95227.75
2022-09-20T08:49:46.142Z,95216.59
2022-09-20T08:52:24.517Z,95211.38
2022-09-20T08:54:51.518Z,95214.78
2022-09-20T08:57:20.847Z,95216.94
2022-09-20T08:59:48.458Z,95221.00
2022-09-20T09:02:21.303Z,95217.78
2022-09-20T09:04:49.991Z,95210.78
2022-09-20T09:07:22.099Z,95200.25
2022-09-20T09:09:52.117Z,95207.00
2022-09-20T09:12:31.070Z,95198.47
2022-09-20T09:15:00.973Z,95207.00
2022-09-20T09:17:30.377Z,95201.84
2022-09-20T09:20:21.762Z,95198.91
2022-09-20T09:23:00.116Z,95194.88
2022-09-20T09:25:38.125Z,95195.22
2022-09-20T09:28:15.572Z,95186.88
2022-09-20T09:30:47.762Z,95177.44
2022-09-20T09:33:20.389Z,95175.06
2022-09-20T09:36:05.393Z,95169.25
2022-09-20T09:38:35.541Z,95167.97
2022-09-20T09:41:26.843Z,95164.81
2022-09-20T09:44:11.130Z,95155.41
2022-09-20T09:46:40.352Z,95150.88
2022-09-20T09:49:17.419Z,95164.22
2022-09-20T09:52:01.752Z,95168.25
2022-09-20T09:54:36.597Z,95168.16
2022-09-20T09:57:40.465Z,95165.09
2022-09-20T10:00:20.359Z,95159.78
2022-09-20T10:03:07.679Z,95154.50
2022-09-20T10:05:55.209Z,95152.03
2022-09-20T10:08:54.349Z,95156.00
2022-09-20T10:11:38.451Z,95153.59
2022-09-20T10:14:22.966Z,95163.16
2022-09-20T10:16:58.703Z,95157.00
2022-09-20T10:19:34.593Z,95154.81
2022-09-20T10:22:28.742Z,95156.31
2022-09-20T10:25:10.425Z,95151.16
2022-09-20T10:27:55.690Z,95150.47
2022-09-20T10:30:42.266Z,95137.53
2022-09-20T10:33:32.805Z,95148.00
2022-09-20T10:36:21.369Z,95146.03
2022-09-20T10:39:14.241Z,95131.19
2022-09-20T10:42:02.847Z,95150.75
2022-09-20T10:44:57.230Z,95138.06
2022-09-20T10:47:37.548Z,95147.34
2022-09-20T10:50:35.101Z,95149.31
2022-09-20T10:53:11.965Z,95145.69
2022-09-20T10:55:48.817Z,95151.78
2022-09-20T10:58:38.610Z,95151.53
2022-09-20T11:01:39.219Z,95138.50
2022-09-20T11:04:54.266Z,95133.69
2022-09-20T11:07:37.927Z,95130.03
2022-09-20T11:10:36.835Z,95131.63
2022-09-20T11:13:38.867Z,95137.69
2022-09-20T11:16:29.419Z,95122.97
2022-09-20T11:19:05.718Z,95120.16
2022-09-20T11:21:44.739Z,95124.44
2022-09-20T11:24:31.168Z,95132.53
2022-09-20T11:27:18.698Z,95114.00
2022-09-20T11:30:29.860Z,95130.09
2022-09-20T11:33:20.808Z,95131.69
2022-09-20T11:35:58.843Z,95117.59
2022-09-20T11:38:35.104Z,95120.03
2022-09-20T11:41:27.674Z,95121.03
2022-09-20T11:44:00.583Z,95111.78
2022-09-20T11:46:37.293Z,95104.34
2022-09-20T11:49:16.338Z,95107.81
2022-09-20T11:52:03.634Z,95119.56
2022-09-20T11:54:58.251Z,95110.69
2022-09-20T11:57:25.789Z,95104.25
2022-09-20T11:59:59.305Z,95101.50
2022-09-20T12:02:32.038Z,95085.81
2022-09-20T12:05:02.110Z,95097.09
2022-09-20T12:07:36.453Z,95093.88
2022-09-20T12:10:10.890Z,95099.91
2022-09-20T12:12:39.628Z,95098.69
2022-09-20T12:15:29.867Z,95099.88
2022-09-20T12:17:56.707Z,95094.28
2022-09-20T12:20:32.937Z,95094.31
2022-09-20T12:23:37.006Z,95086.88
2022-09-20T12:26:21.903Z,95084.47
2022-09-20T12:29:01.162Z,95085.25
2022-09-20T12:31:34.433Z,95086.44
2022-09-20T12:34:24.610Z,95097.13
2022-09-20T12:36:54.041Z,95084.28
2022-09-20T12:39:30.093Z,95103.19
2022-09-20T12:42:03.243Z,95101.97
2022-09-20T12:44:47.453Z,95080.56
2022-09-20T12:47:14.545Z,95088.38
2022-09-20T12:50:06.105Z,95082.97
2022-09-20T12:52:50.750Z,95078.50
2022-09-20T12:55:42.583Z,95078.88
2022-09-20T12:58:12.162Z,95080.91
2022-09-20T13:00:46.658Z,95076.50
2022-09-20T13:03:35.034Z,95079.81
2022-09-20T13:06:08.905Z,95078.38
2022-09-20T13:08:43.467Z,95064.72
2022-09-20T13:11:18.713Z,95080.63
2022-09-20T13:14:04.381Z,95081.00
2022-09-20T13:16:40.493Z,95070.13
2022-09-20T13:19:16.857Z,95069.13
2022-09-20T13:22:14.441Z,95065.69
2022-09-20T13:24:48.500Z,95060.47
2022-09-20T13:27:32.769Z,95066.50
2022-09-20T13:30:31.934Z,95069.66
2022-09-20T13:33:17.557Z,95081.59
2022-09-20T13:35:48.468Z,95067.69
2022-09-20T13:38:25.187Z,95070.53
2022-09-20T13:40:54.380Z,95064.09
2022-09-20T13:43:36.965Z,95075.34
2022-09-20T13:46:16.690Z,95071.69
2022-09-20T13:48:47.350Z,95056.53
2022-09-20T13:51:40.734Z,95062.94
2022-09-20T13:54:22.263Z,95054.66
2022-09-20T13:56:50.994Z,95069.22
2022-09-20T13:59:19.624Z,95060.75
2022-09-20T14:01:53.100Z,95061.63
2022-09-20T14:04:25.040Z,95050.31
2022-09-20T14:06:56.503Z,95058.34
2022-09-20T14:09:33.066Z,95062.03
2022-09-20T14:12:01.445Z,95056.16
2022-09-20T14:14:29.187Z,95062.16
2022-09-20T14:16:58.278Z,95059.38
2022-09-20T14:19:37.433Z,95046.50
2022-09-20T14:22:05.453Z,95051.75
2022-09-20T14:24:35.716Z,95057.44
2022-09-20T14:27:22.433Z,95059.31
2022-09-20T14:29:54.987Z,95050.22
2022-09-20T14:32:42.760Z,95064.38
2022-09-20T14:35:31.555Z,95051.03
2022-09-20T14:38:06.154Z,95061.31
2022-09-20T14:40:44.787Z,95065.38
2022-09-20T14:43:29.391Z,95062.78
2022-09-20T14:46:18.729Z,95063.41
2022-09-20T14:48:46.528Z,95071.09
2022-09-20T14:51:22.345Z,95075.78
2022-09-20T14:54:07.319Z,95070.50
2022-09-20T14:56:37.429Z,95077.56
2022-09-20T14:59:14.642Z,95082.94
2022-09-20T15:01:46.434Z,95085.75
2022-09-20T15:04:25.549Z,95070.63
2022-09-20T15:06:55.122Z,95074.44
2022-09-20T15:09:23.006Z,95076.94
2022-09-20T15:12:20.393Z,95078.16
2022-09-20T15:14:48.345Z,95082.53
2022-09-20T15:17:20.897Z,95067.47
2022-09-20T15:19:49.439Z,95071.38
2022-09-20T15:22:16.361Z,95083.19
2022-09-20T15:24:43.678Z,95074.47
2022-09-20T15:27:13.523Z,95080.78
2022-09-20T15:29:40.407Z,95073.00
2022-09-20T15:32:09.585Z,95080.25
2022-09-20T15:34:36.392Z,95083.50
2022-09-20T15:37:03.439Z,95080.09
2022-09-20T15:39:30.274Z,95077.97
2022-09-20T15:41:57.430Z,95084.69
2022-09-20T15:44:24.372Z,95081.59
2022-09-20T15:46:51.617Z,95069.22
2022-09-20T15:49:18.602Z,95090.50
2022-09-20T15:51:46.465Z,95091.50
2022-09-20T15:54:14.900Z,95092.44
2022-09-20T15:56:42.281Z,95087.78
2022-09-20T15:59:11.563Z,95098.25
2022-09-20T16:01:41.972Z,95103.72
2022-09-20T16:04:19.676Z,95101.59
2022-09-20T16:06:49.599Z,95103.84
2022-09-20T16:09:18.450Z,95108.34
2022-09-20T16:11:45.919Z,95105.66
2022-09-20T16:14:13.069Z,95104.94
2022-09-20T16:16:40.823Z,95109.88
2022-09-20T16:19:22.011Z,95097.75
2022-09-20T16:21:57.781Z,95111.63
2022-09-20T16:24:30.969Z,95103.72
2022-09-20T16:26:59.279Z,95111.59
2022-09-20T16:29:27.120Z,95104.41
2022-09-20T16:31:55.060Z,95117.13
2022-09-20T16:34:31.132Z,95118.19
2022-09-20T16:37:03.050Z,95120.50
2022-09-20T16:39:31.422Z,95117.44
2022-09-20T16:42:06.801Z,95115.75
2022-09-20T16:44:36.001Z,95116.78
2022-09-20T16:47:08.152Z,95122.13
2022-09-20T16:49:36.356Z,95123.31
2022-09-20T16:52:07.604Z,95129.13
2022-09-20T16:54:34.710Z,95135.69
2022-09-20T16:57:01.622Z,95133.06
2022-09-20T16:59:28.720Z,95134.41
2022-09-20T17:01:55.705Z,95141.25
2022-09-20T17:04:22.905Z,95134.28
2022-09-20T17:06:51.544Z,95143.84
2022-09-20T17:09:18.617Z,95138.19
2022-09-20T17:11:49.209Z,95131.09
2022-09-20T17:14:17.921Z,95134.06
2022-09-20T17:16:48.518Z,95146.66
2022-09-20T17:19:18.740Z,95142.28
2022-09-20T17:21:50.329Z,95147.88
2022-09-20T17:24:19.767Z,95146.56
2022-09-20T17:26:47.237Z,95148.69
2022-09-20T17:29:17.589Z,95149.53
2022-09-20T17:31:51.505Z,95147.28
2022-09-20T17:34:22.155Z,95152.31
2022-09-20T17:36:50.570Z,95158.03
2022-09-20T17:39:17.971Z,95159.97
2022-09-20T17:41:47.063Z,95163.06
2022-09-20T17:44:26.668Z,95157.56
2022-09-20T17:47:07.301Z,95154.50
2022-09-20T17:49:54.684Z,95164.56
2022-09-20T17:52:28.198Z,95157.91
2022-09-20T17:54:55.089Z,95164.88
2022-09-20T17:57:21.906Z,95166.19
2022-09-20T17:59:48.739Z,95170.19
2022-09-20T18:02:16.061Z,95163.75
2022-09-20T18:04:42.891Z,95163.09
2022-09-20T18:07:09.815Z,95174.63
2022-09-20T18:09:36.726Z,95173.47
2022-09-20T18:12:05.133Z,95172.03
2022-09-20T18:14:32.735Z,95175.44
2022-09-20T18:17:01.636Z,95172.19
2022-09-20T18:19:35.222Z,95171.38
2022-09-20T18:22:02.887Z,95177.56
2022-09-20T18:24:30.504Z,95180.31
2022-09-20T18:26:57.348Z,95179.66
2022-09-20T18:29:25.123Z,95166.06
2022-09-20T18:31:54.787Z,95183.56
2022-09-20T18:34:24.352Z,95182.59
2022-09-20T18:36:54.345Z,95181.97
2022-09-20T18:39:27.645Z,95184.22
2022-09-20T18:41:55.157Z,95183.25
2022-09-20T18:44:23.117Z,95186.81
2022-09-20T18:46:55.324Z,95179.66
2022-09-20T18:49:22.618Z,95173.03
2022-09-20T18:51:49.765Z,95185.34
2022-09-20T18:54:17.823Z,95181.94
2022-09-20T18:56:46.717Z,95184.53
2022-09-20T18:59:18.207Z,95188.88
2022-09-20T19:01:54.087Z,95190.31
2022-09-20T19:04:39.868Z,95186.91
2022-09-20T19:07:16.214Z,95182.84
2022-09-20T19:09:50.634Z,95186.72
2022-09-20T19:12:37.226Z,95191.88
2022-09-20T19:15:13.099Z,95194.94
2022-09-20T19:17:48.146Z,95188.16
2022-09-20T19:20:20.743Z,95191.56
2022-09-20T19:23:06.318Z,95192.53
2022-09-20T19:25:43.541Z,95200.44
2022-09-20T19:28:12.587Z,95190.25
2022-09-20T19:30:40.730Z,95196.06
2022-09-20T19:33:17.944Z,95196.88
2022-09-20T19:35:50.137Z,95198.47
2022-09-20T19:38:26.069Z,95207.38
2022-09-20T19:41:20.701Z,95202.00
2022-09-20T19:43:56.730Z,95206.06
2022-09-20T19:46:46.396Z,95204.75
2022-09-20T19:49:32.072Z,95216.69
2022-09-20T19:51:59.208Z,95209.88
2022-09-20T19:54:26.456Z,95209.72
2022-09-20T19:56:54.995Z,95211.16
2022-09-20T19:59:24.462Z,95210.13
2022-09-20T20:01:52.707Z,95216.75
2022-09-20T20:04:21.044Z,95219.19
2022-09-20T20:06:47.990Z,95224.03
2022-09-20T20:09:23.024Z,95220.81
2022-09-20T20:12:01.746Z,95223.56
2022-09-20T20:14:50.970Z,95224.97
2022-09-20T20:17:46.446Z,95229.63
2022-09-20T20:20:22.614Z,95231.72
2022-09-20T20:23:11.604Z,95226.34
2022-09-20T20:25:50.414Z,95224.38
2022-09-20T20:28:17.333Z,95223.69
2022-09-20T20:30:44.135Z,95235.13
2022-09-20T20:33:17.340Z,95236.53
2022-09-20T20:35:44.103Z,95227.59
2022-09-20T20:38:11.925Z,95227.94
2022-09-20T20:40:38.784Z,95236.41
2022-09-20T20:43:06.283Z,95239.16
2022-09-20T20:45:33.200Z,95230.72
2022-09-20T20:48:00.118Z,95226.66
2022-09-20T20:50:28.338Z,95229.69
2022-09-20T20:52:56.589Z,95235.19
2022-09-20T20:55:24.861Z,95230.31
2022-09-20T20:58:01.276Z,95225.44
2022-09-20T21:00:28.507Z,95232.09
2022-09-20T21:03:03.098Z,95233.47
2022-09-20T21:05:31.087Z,95231.13
2022-09-20T21:07:58.945Z,95234.53
2022-09-20T21:10:28.842Z,95229.13
2022-09-20T21:12:55.786Z,95236.88
2022-09-20T21:15:22.767Z,95226.19
2022-09-20T21:17:53.359Z,95228.91
2022-09-20T21:20:21.726Z,95234.06
2022-09-20T21:22:48.602Z,95236.44
2022-09-20T21:25:15.488Z,95240.66
2022-09-20T21:27:42.862Z,95244.78
2022-09-20T21:30:10.220Z,95239.22
2022-09-20T21:32:37.064Z,95237.91
2022-09-20T21:35:04.133Z,95246.63
2022-09-20T21:37:31.009Z,95236.97
2022-09-20T21:39:57.966Z,95243.34
2022-09-20T21:42:27.395Z,95232.63
2022-09-20T21:44:54.575Z,95238.34
2022-09-20T21:47:21.554Z,95237.06
2022-09-20T21:49:48.687Z,95243.84
2022-09-20T21:52:15.866Z,95233.78
2022-09-20T21:54:46.746Z,95234.22
2022-09-20T21:57:13.993Z,95241.44
2022-09-20T21:59:41.870Z,95239.81
2022-09-20T22:02:09.345Z,95233.84
2022-09-20T22:04:36.686Z,95236.56
2022-09-20T22:07:04.642Z,95226.84
2022-09-20T22:09:31.672Z,95232.28
2022-09-20T22:11:58.731Z,95226.16
2022-09-20T22:14:25.970Z,95227.66
2022-09-20T22:16:53.233Z,95223.56
2022-09-20T22:19:20.695Z,95220.03
2022-09-20T22:21:50.058Z,95221.34
2022-09-20T22:24:17.171Z,95216.19
2022-09-20T22:26:46.009Z,95228.75
2022-09-20T22:29:13.010Z,95217.34
2022-09-20T22:31:45.326Z,95223.47
2022-09-20T22:34:22.024Z,95223.06
2022-09-20T22:36:49.673Z,95221.22
2022-09-20T22:39:17.438Z,95226.53
2022-09-20T22:41:45.087Z,95225.03
2022-09-20T22:44:12.593Z,95223.16
2022-09-20T22:46:40.114Z,95225.75
2022-09-20T22:49:08.693Z,95225.09
2022-09-20T22:51:36.084Z,95232.84
2022-09-20T22:54:08.371Z,95223.47
2022-09-20T22:56:36.443Z,95235.63
2022-09-20T22:59:11.075Z,95231.00
2022-09-20T23:01:44.187Z,95231.69
2022-09-20T23:04:13.783Z,95234.00
2022-09-20T23:06:40.625Z,95232.09
2022-09-20T23:09:10.364Z,95228.56
2022-09-20T23:11:39.021Z,95218.22
2022-09-20T23:14:06.781Z,95224.06
2022-09-20T23:16:36.642Z,95227.59
2022-09-20T23:19:05.746Z,95229.22
2022-09-20T23:21:33.655Z,95227.19
2022-09-20T23:24:02.746Z,95223.66
2022-09-20T23:26:32.846Z,95219.47
2022-09-20T23:29:05.655Z,95220.81
2022-09-20T23:31:34.997Z,95223.41
2022-09-20T23:34:04.569Z,95224.44
2022-09-20T23:36:33.347Z,95217.34
2022-09-20T23:39:00.262Z,95213.97
2022-09-20T23:41:28.469Z,95224.53
2022-09-20T23:43:55.564Z,95222.25
2022-09-20T23:46:24.426Z,95224.69
2022-09-20T23:48:51.475Z,95225.78
2022-09-20T23:51:22.611Z,95227.53
2022-09-20T23:53:50.493Z,95225.91
2022-09-20T23:56:18.065Z,95226.72
2022-09-20T23:58:45.245Z,95227.97
